createdAt,value
2023-03-15T00:00:55.275Z,1.00
2023-03-15T00:03:23.837Z,0.50
2023-03-15T00:05:51.986Z,0.40
2023-03-15T00:08:19.109Z,0.40
2023-03-15T00:10:47.702Z,0.60
2023-03-15T00:13:17.297Z,0.50
2023-03-15T00:15:53.699Z,0.20
2023-03-15T00:18:27.930Z,1.20
2023-03-15T00:20:55.105Z,0.90
2023-03-15T00:23:21.825Z,1.00
2023-03-15T00:25:51.614Z,0.60
2023-03-15T00:28:18.766Z,0.60
2023-03-15T00:30:46.010Z,0.80
2023-03-15T00:33:14.693Z,1.20
2023-03-15T00:35:44.522Z,0.80
2023-03-15T00:38:13.101Z,0.40
2023-03-15T00:40:39.940Z,1.40
2023-03-15T00:43:06.545Z,0.70
2023-03-15T00:45:33.085Z,0.90
2023-03-15T00:47:59.939Z,1.20
2023-03-15T00:50:26.741Z,1.30
2023-03-15T00:52:53.202Z,0.50
2023-03-15T00:55:21.124Z,0.50
2023-03-15T00:57:47.636Z,0.50
2023-03-15T01:00:24.015Z,0.60
2023-03-15T01:02:55.469Z,0.90
2023-03-15T01:05:22.611Z,0.50
2023-03-15T01:07:49.474Z,0.80
2023-03-15T01:10:16.916Z,0.40
2023-03-15T01:12:45.323Z,0.60
2023-03-15T01:15:15.198Z,0.60
2023-03-15T01:17:42.549Z,0.40
2023-03-15T01:20:13.758Z,1.10
2023-03-15T01:22:40.576Z,0.80
2023-03-15T01:25:08.740Z,1.00
2023-03-15T01:27:35.365Z,0.30
2023-03-15T01:30:01.962Z,0.70
2023-03-15T01:32:29.816Z,0.40
2023-03-15T01:34:57.067Z,0.80
2023-03-15T01:37:24.071Z,0.30
2023-03-15T01:39:51.275Z,0.50
2023-03-15T01:42:17.811Z,0.50
2023-03-15T01:44:59.396Z,1.10
2023-03-15T01:47:27.265Z,0.60
2023-03-15T01:50:10.901Z,0.70
2023-03-15T01:52:42.280Z,0.70
2023-03-15T01:55:13.721Z,0.70
2023-03-15T01:57:57.452Z,0.60
2023-03-15T02:00:24.385Z,0.60
2023-03-15T02:03:17.104Z,1.10
2023-03-15T02:05:54.204Z,0.60
2023-03-15T02:08:26.197Z,0.40
2023-03-15T02:11:00.796Z,0.50
2023-03-15T02:13:30.569Z,0.60
2023-03-15T02:15:57.068Z,0.80
2023-03-15T02:18:23.999Z,0.80
2023-03-15T02:21:02.539Z,0.60
2023-03-15T02:23:31.415Z,0.70
2023-03-15T02:26:15.308Z,0.80
2023-03-15T02:28:43.185Z,0.50
2023-03-15T02:31:10.284Z,0.20
2023-03-15T02:33:44.925Z,0.30
2023-03-15T02:36:21.639Z,0.70
2023-03-15T02:38:50.154Z,0.20
2023-03-15T02:41:41.878Z,1.00
2023-03-15T02:44:17.036Z,1.10
2023-03-15T02:46:49.185Z,0.90
2023-03-15T02:49:18.922Z,0.80
2023-03-15T02:51:45.466Z,0.80
2023-03-15T02:54:11.982Z,0.80
2023-03-15T02:56:38.390Z,0.70
2023-03-15T02:59:05.121Z,0.50
2023-03-15T03:01:31.848Z,0.70
2023-03-15T03:03:58.606Z,0.70
2023-03-15T03:06:25.047Z,0.60
2023-03-15T03:08:51.464Z,0.40
2023-03-15T03:11:17.918Z,0.50
2023-03-15T03:13:44.423Z,0.60
2023-03-15T03:16:11.417Z,0.60
2023-03-15T03:18:38.882Z,0.70
2023-03-15T03:21:07.221Z,0.60
2023-03-15T03:23:35.860Z,0.60
2023-03-15T03:26:03.595Z,0.30
2023-03-15T03:28:32.761Z,0.60
2023-03-15T03:30:59.779Z,0.40
2023-03-15T03:33:26.193Z,0.50
2023-03-15T03:35:53.658Z,0.60
2023-03-15T03:38:20.508Z,0.30
2023-03-15T03:40:46.992Z,0.60
2023-03-15T03:43:13.622Z,0.70
2023-03-15T03:45:40.096Z,0.70
2023-03-15T03:48:06.802Z,0.80
2023-03-15T03:50:33.228Z,0.70
2023-03-15T03:52:59.655Z,1.00
2023-03-15T03:55:26.135Z,0.40
2023-03-15T03:57:52.704Z,0.60
2023-03-15T04:00:20.954Z,0.60
2023-03-15T04:02:47.486Z,0.80
2023-03-15T04:05:14.182Z,0.40
2023-03-15T04:07:40.981Z,0.40
2023-03-15T04:10:08.810Z,0.10
2023-03-15T04:12:35.374Z,0.40
2023-03-15T04:15:02.822Z,0.10
2023-03-15T04:17:29.436Z,0.80
2023-03-15T04:19:55.876Z,0.20
2023-03-15T04:22:22.292Z,0.40
2023-03-15T04:24:50.057Z,0.80
2023-03-15T04:27:16.457Z,0.30
2023-03-15T04:29:43.278Z,0.20
2023-03-15T04:32:10.797Z,0.40
2023-03-15T04:34:38.342Z,0.40
2023-03-15T04:37:05.680Z,0.70
2023-03-15T04:39:32.304Z,0.30
2023-03-15T04:41:58.861Z,0.50
2023-03-15T04:44:26.916Z,0.30
2023-03-15T04:46:55.006Z,0.80
2023-03-15T04:49:21.592Z,0.50
2023-03-15T04:51:48.051Z,0.70
2023-03-15T04:54:14.516Z,0.30
2023-03-15T04:56:41.702Z,0.40
2023-03-15T04:59:10.035Z,0.70
2023-03-15T05:01:37.082Z,0.80
2023-03-15T05:04:03.899Z,0.70
2023-03-15T05:06:30.533Z,0.40
2023-03-15T05:08:56.954Z,0.50
2023-03-15T05:11:23.578Z,0.60
2023-03-15T05:13:50.001Z,1.00
2023-03-15T05:16:17.089Z,0.60
2023-03-15T05:18:44.696Z,0.60
2023-03-15T05:21:12.715Z,0.30
2023-03-15T05:23:40.926Z,0.50
2023-03-15T05:26:07.388Z,0.50
2023-03-15T05:28:33.802Z,0.50
2023-03-15T05:31:01.942Z,0.50
2023-03-15T05:33:28.598Z,0.70
2023-03-15T05:35:55.875Z,0.60
2023-03-15T05:38:25.997Z,0.30
2023-03-15T05:40:53.522Z,0.30
2023-03-15T05:43:21.192Z,0.50
2023-03-15T05:45:48.064Z,0.70
2023-03-15T05:48:16.106Z,0.20
2023-03-15T05:50:42.822Z,1.30
2023-03-15T05:53:10.046Z,0.70
2023-03-15T05:55:37.042Z,1.00
2023-03-15T05:58:04.465Z,0.40
2023-03-15T06:00:31.892Z,0.70
2023-03-15T06:02:58.847Z,0.50
2023-03-15T06:05:26.347Z,0.40
2023-03-15T06:07:52.713Z,0.50
2023-03-15T06:10:19.283Z,0.80
2023-03-15T06:12:45.882Z,0.40
2023-03-15T06:15:12.531Z,0.30
2023-03-15T06:17:38.928Z,0.50
2023-03-15T06:20:06.074Z,0.60
2023-03-15T06:22:32.662Z,0.80
2023-03-15T06:24:59.153Z,0.80
2023-03-15T06:27:25.582Z,0.60
2023-03-15T06:29:53.261Z,0.80
2023-03-15T06:32:19.968Z,1.10
2023-03-15T06:34:46.455Z,0.70
2023-03-15T06:37:14.725Z,0.90
2023-03-15T06:39:44.121Z,0.60
2023-03-15T06:42:13.116Z,0.80
2023-03-15T06:44:41.061Z,0.50
2023-03-15T06:47:10.159Z,1.20
2023-03-15T06:49:37.287Z,0.50
2023-03-15T06:52:05.887Z,0.40
2023-03-15T06:54:32.387Z,0.90
2023-03-15T06:56:59.546Z,0.50
2023-03-15T06:59:27.283Z,0.90
2023-03-15T07:01:56.125Z,1.20
2023-03-15T07:04:22.560Z,0.50
2023-03-15T07:06:50.884Z,1.00
2023-03-15T07:09:19.962Z,0.80
2023-03-15T07:11:46.439Z,0.80
2023-03-15T07:14:12.876Z,0.30
2023-03-15T07:16:39.300Z,0.90
2023-03-15T07:19:05.803Z,0.80
2023-03-15T07:21:32.378Z,0.60
2023-03-15T07:23:58.882Z,0.30
2023-03-15T07:26:25.428Z,0.60
2023-03-15T07:28:51.793Z,0.50
2023-03-15T07:31:18.319Z,0.50
2023-03-15T07:33:44.821Z,0.60
2023-03-15T07:36:11.464Z,0.70
2023-03-15T07:38:38.496Z,0.60
2023-03-15T07:41:06.862Z,0.60
2023-03-15T07:43:34.640Z,0.60
2023-03-15T07:46:01.242Z,0.50
2023-03-15T07:48:28.832Z,0.70
2023-03-15T07:50:56.185Z,0.70
2023-03-15T07:53:22.897Z,0.30
2023-03-15T07:55:49.633Z,0.60
2023-03-15T07:58:19.060Z,0.90
2023-03-15T08:00:47.693Z,0.40
2023-03-15T08:03:14.302Z,1.20
2023-03-15T08:05:40.757Z,0.60
2023-03-15T08:08:07.309Z,0.50
2023-03-15T08:10:33.771Z,0.70
2023-03-15T08:13:00.223Z,0.50
2023-03-15T08:15:27.663Z,0.70
2023-03-15T08:17:54.263Z,0.60
2023-03-15T08:20:21.781Z,0.50
2023-03-15T08:22:50.726Z,0.50
2023-03-15T08:25:22.855Z,0.50
2023-03-15T08:27:50.835Z,0.60
2023-03-15T08:30:21.430Z,1.30
2023-03-15T08:32:51.956Z,0.60
2023-03-15T08:35:21.378Z,0.90
2023-03-15T08:37:48.241Z,1.00
2023-03-15T08:40:18.443Z,1.30
2023-03-15T08:42:45.493Z,0.70
2023-03-15T08:45:11.998Z,0.50
2023-03-15T08:47:38.449Z,0.90
2023-03-15T08:50:10.353Z,0.70
2023-03-15T08:52:38.652Z,1.40
2023-03-15T08:55:06.383Z,1.20
2023-03-15T08:57:33.180Z,1.10
2023-03-15T09:00:05.864Z,1.10
2023-03-15T09:02:32.900Z,0.60
2023-03-15T09:04:59.473Z,0.90
2023-03-15T09:07:25.840Z,0.90
2023-03-15T09:09:53.952Z,0.60
2023-03-15T09:12:21.435Z,0.80
2023-03-15T09:14:47.881Z,0.80
2023-03-15T09:17:14.598Z,0.90
2023-03-15T09:19:41.096Z,1.10
2023-03-15T09:22:16.367Z,0.90
2023-03-15T09:24:43.472Z,0.80
2023-03-15T09:27:11.213Z,0.70
2023-03-15T09:29:37.524Z,0.40
2023-03-15T09:32:04.529Z,0.30
2023-03-15T09:34:39.892Z,0.40
2023-03-15T09:37:08.448Z,0.80
2023-03-15T09:39:34.898Z,0.60
2023-03-15T09:42:06.440Z,0.30
2023-03-15T09:44:44.297Z,0.30
2023-03-15T09:47:20.365Z,1.00
2023-03-15T09:50:26.204Z,0.50
2023-03-15T09:53:03.456Z,0.60
2023-03-15T09:55:30.031Z,0.80
2023-03-15T09:58:03.286Z,0.60
2023-03-15T10:00:52.535Z,0.60
2023-03-15T10:03:47.018Z,0.50
2023-03-15T10:06:23.752Z,0.50
2023-03-15T10:08:56.877Z,0.70
2023-03-15T10:11:39.348Z,0.40
2023-03-15T10:14:24.824Z,1.10
2023-03-15T10:16:52.060Z,0.90
2023-03-15T10:19:45.135Z,0.40
2023-03-15T10:22:14.212Z,0.80
2023-03-15T10:25:25.495Z,0.80
2023-03-15T10:28:14.789Z,0.40
2023-03-15T10:30:51.275Z,1.20
2023-03-15T10:33:32.668Z,0.40
2023-03-15T10:36:11.036Z,0.70
2023-03-15T10:38:41.499Z,0.50
2023-03-15T10:41:17.832Z,0.70
2023-03-15T10:44:04.166Z,0.90
2023-03-15T10:46:30.619Z,0.90
2023-03-15T10:49:15.967Z,0.50
2023-03-15T10:51:47.973Z,0.90
2023-03-15T10:54:21.429Z,0.50
2023-03-15T10:57:13.684Z,0.60
2023-03-15T11:00:11.089Z,0.70
2023-03-15T11:02:37.618Z,0.70
2023-03-15T11:05:16.487Z,0.40
2023-03-15T11:07:56.278Z,0.50
2023-03-15T11:10:26.706Z,0.40
2023-03-15T11:13:19.927Z,0.50
2023-03-15T11:16:14.404Z,0.30
2023-03-15T11:18:49.648Z,0.60
2023-03-15T11:21:19.399Z,0.60
2023-03-15T11:23:49.485Z,1.00
2023-03-15T11:26:32.369Z,0.60
2023-03-15T11:29:20.235Z,0.40
2023-03-15T11:31:48.389Z,0.50
2023-03-15T11:34:30.286Z,0.60
2023-03-15T11:37:09.112Z,0.40
2023-03-15T11:40:12.371Z,0.50
2023-03-15T11:43:05.325Z,0.50
2023-03-15T11:46:05.540Z,0.70
2023-03-15T11:48:58.871Z,0.30
2023-03-15T11:51:25.439Z,0.40
2023-03-15T11:54:17.376Z,0.30
2023-03-15T11:56:43.718Z,0.40
2023-03-15T11:59:13.045Z,0.60
2023-03-15T12:01:47.847Z,0.50
2023-03-15T12:04:33.132Z,0.50
2023-03-15T12:07:23.811Z,0.40
2023-03-15T12:09:55.672Z,0.40
2023-03-15T12:12:25.086Z,0.50
2023-03-15T12:15:13.535Z,1.00
2023-03-15T12:17:54.392Z,0.50
2023-03-15T12:20:38.284Z,0.40
2023-03-15T12:23:12.587Z,0.80
2023-03-15T12:25:55.768Z,0.80
2023-03-15T12:28:33.038Z,0.60
2023-03-15T12:31:04.095Z,0.70
2023-03-15T12:33:43.052Z,0.70
2023-03-15T12:36:18.582Z,0.60
2023-03-15T12:39:00.078Z,0.50
2023-03-15T12:41:43.410Z,0.40
2023-03-15T12:44:31.444Z,0.40
2023-03-15T12:47:01.888Z,2.30
2023-03-15T12:49:46.527Z,0.60
2023-03-15T12:52:33.913Z,0.30
2023-03-15T12:55:15.587Z,0.60
2023-03-15T12:57:53.528Z,0.80
2023-03-15T13:00:26.732Z,0.50
2023-03-15T13:03:16.032Z,0.40
2023-03-15T13:06:13.964Z,0.40
2023-03-15T13:09:35.469Z,0.40
2023-03-15T13:12:21.279Z,0.70
2023-03-15T13:15:14.200Z,0.80
2023-03-15T13:17:51.515Z,0.50
2023-03-15T13:20:45.892Z,0.50
2023-03-15T13:23:27.023Z,0.40
2023-03-15T13:26:22.827Z,0.40
2023-03-15T13:29:00.405Z,0.60
2023-03-15T13:31:31.467Z,0.20
2023-03-15T13:34:20.068Z,0.70
2023-03-15T13:36:54.408Z,0.30
2023-03-15T13:39:27.381Z,0.60
2023-03-15T13:42:23.179Z,0.70
2023-03-15T13:45:22.665Z,0.60
2023-03-15T13:47:49.307Z,0.40
2023-03-15T13:50:20.594Z,0.30
2023-03-15T13:52:48.722Z,0.40
2023-03-15T13:55:21.983Z,0.50
2023-03-15T13:57:59.456Z,0.20
2023-03-15T14:00:26.986Z,0.90
2023-03-15T14:03:00.612Z,0.30
2023-03-15T14:05:31.784Z,0.20
2023-03-15T14:08:14.824Z,0.70
2023-03-15T14:10:41.402Z,0.40
2023-03-15T14:13:25.382Z,0.70
2023-03-15T14:16:01.244Z,1.10
2023-03-15T14:18:38.160Z,0.50
2023-03-15T14:21:19.878Z,0.40
2023-03-15T14:23:49.053Z,0.30
2023-03-15T14:26:26.901Z,0.30
2023-03-15T14:29:02.318Z,0.50
2023-03-15T14:31:39.185Z,0.70
2023-03-15T14:34:17.926Z,0.30
2023-03-15T14:36:46.301Z,0.20
2023-03-15T14:39:30.980Z,0.40
2023-03-15T14:41:57.403Z,0.30
2023-03-15T14:44:23.877Z,0.70
2023-03-15T14:46:50.869Z,0.60
2023-03-15T14:49:27.037Z,0.50
2023-03-15T14:52:00.829Z,0.20
2023-03-15T14:54:31.696Z,0.40
2023-03-15T14:56:58.290Z,0.50
2023-03-15T14:59:25.072Z,0.60
2023-03-15T15:01:58.786Z,0.50
2023-03-15T15:04:33.863Z,0.60
2023-03-15T15:07:02.377Z,0.40
2023-03-15T15:09:30.422Z,0.50
2023-03-15T15:11:56.840Z,0.50
2023-03-15T15:14:23.245Z,0.30
2023-03-15T15:16:51.322Z,0.40
2023-03-15T15:19:17.976Z,0.40
2023-03-15T15:21:44.621Z,0.60
2023-03-15T15:24:15.952Z,0.50
2023-03-15T15:26:43.546Z,0.60
2023-03-15T15:29:14.198Z,0.50
2023-03-15T15:31:41.896Z,0.60
2023-03-15T15:34:10.516Z,0.30
2023-03-15T15:36:43.342Z,0.40
2023-03-15T15:39:26.951Z,0.50
2023-03-15T15:41:53.456Z,0.30
2023-03-15T15:44:24.269Z,0.40
2023-03-15T15:46:52.276Z,0.20
2023-03-15T15:49:19.240Z,0.30
2023-03-15T15:51:50.712Z,0.50
2023-03-15T15:54:25.912Z,0.40
2023-03-15T15:56:58.027Z,0.30
2023-03-15T15:59:25.163Z,0.50
2023-03-15T16:02:00.718Z,0.40
2023-03-15T16:04:29.390Z,0.20
2023-03-15T16:07:00.896Z,0.30
2023-03-15T16:09:30.139Z,0.20
2023-03-15T16:11:57.806Z,0.50
2023-03-15T16:14:24.389Z,0.40
2023-03-15T16:16:50.857Z,0.80
2023-03-15T16:19:17.359Z,0.70
2023-03-15T16:21:48.364Z,1.00
2023-03-15T16:24:30.148Z,0.90
2023-03-15T16:27:03.948Z,1.20
2023-03-15T16:29:47.914Z,1.30
2023-03-15T16:32:43.036Z,0.70
2023-03-15T16:35:16.126Z,0.80
2023-03-15T16:37:45.088Z,1.10
2023-03-15T16:40:22.489Z,1.10
2023-03-15T16:42:49.999Z,1.00
2023-03-15T16:45:17.344Z,1.20
2023-03-15T16:47:43.920Z,1.60
2023-03-15T16:50:11.880Z,2.00
2023-03-15T16:52:41.444Z,1.40
2023-03-15T16:55:17.960Z,1.70
2023-03-15T16:57:44.528Z,1.80
2023-03-15T17:00:16.475Z,1.80
2023-03-15T17:02:47.297Z,1.80
2023-03-15T17:05:17.015Z,1.50
2023-03-15T17:07:46.048Z,1.30
2023-03-15T17:10:22.598Z,1.60
2023-03-15T17:12:52.731Z,1.90
2023-03-15T17:15:26.062Z,1.40
2023-03-15T17:17:57.339Z,1.90
2023-03-15T17:20:26.738Z,1.80
2023-03-15T17:22:58.809Z,1.10
2023-03-15T17:25:26.090Z,1.70
2023-03-15T17:27:52.779Z,2.30
2023-03-15T17:30:27.798Z,1.70
2023-03-15T17:32:55.584Z,2.10
2023-03-15T17:35:29.097Z,1.90
2023-03-15T17:37:56.419Z,1.70
2023-03-15T17:40:30.390Z,2.40
2023-03-15T17:43:00.806Z,2.30
2023-03-15T17:45:31.368Z,2.70
2023-03-15T17:47:59.103Z,2.20
2023-03-15T17:50:30.598Z,3.00
2023-03-15T17:53:14.942Z,3.10
2023-03-15T17:55:42.460Z,3.00
2023-03-15T17:58:16.266Z,3.40
2023-03-15T18:00:43.207Z,3.20
2023-03-15T18:03:12.804Z,3.30
2023-03-15T18:05:40.139Z,2.80
2023-03-15T18:08:17.898Z,2.70
2023-03-15T18:10:47.289Z,3.90
2023-03-15T18:13:18.901Z,5.40
2023-03-15T18:15:48.595Z,9.20
2023-03-15T18:18:15.803Z,12.20
2023-03-15T18:20:42.648Z,11.40
2023-03-15T18:23:13.839Z,11.30
2023-03-15T18:25:41.815Z,9.10
2023-03-15T18:28:08.534Z,8.70
2023-03-15T18:30:41.099Z,9.60
2023-03-15T18:33:15.957Z,10.40
2023-03-15T18:35:42.990Z,10.50
2023-03-15T18:38:10.473Z,8.40
2023-03-15T18:40:39.623Z,8.30
2023-03-15T18:43:06.291Z,9.70
2023-03-15T18:45:35.413Z,10.40
2023-03-15T18:48:03.804Z,10.90
2023-03-15T18:50:31.343Z,10.50
2023-03-15T18:52:58.718Z,8.90
2023-03-15T18:55:26.149Z,8.90
2023-03-15T18:57:54.733Z,7.10
2023-03-15T19:00:27.699Z,8.80
2023-03-15T19:03:01.126Z,8.30
2023-03-15T19:05:31.681Z,6.70
2023-03-15T19:07:58.674Z,6.10
2023-03-15T19:10:26.770Z,5.10
2023-03-15T19:12:53.444Z,5.10
2023-03-15T19:15:23.057Z,5.70
2023-03-15T19:17:53.835Z,5.30
2023-03-15T19:20:23.104Z,4.70
2023-03-15T19:22:52.982Z,4.40
2023-03-15T19:25:21.169Z,5.20
2023-03-15T19:27:48.770Z,4.30
2023-03-15T19:30:22.308Z,4.80
2023-03-15T19:32:51.751Z,5.00
2023-03-15T19:35:20.195Z,6.00
2023-03-15T19:37:48.321Z,6.50
2023-03-15T19:40:16.459Z,7.00
2023-03-15T19:42:44.087Z,7.10
2023-03-15T19:45:12.617Z,6.10
2023-03-15T19:47:39.700Z,6.90
2023-03-15T19:50:13.665Z,6.70
2023-03-15T19:52:45.415Z,6.70
2023-03-15T19:55:19.629Z,6.90
2023-03-15T19:57:50.240Z,7.20
2023-03-15T20:00:22.680Z,8.30
2023-03-15T20:02:49.571Z,7.70
2023-03-15T20:05:19.846Z,7.90
2023-03-15T20:07:50.009Z,8.80
2023-03-15T20:10:23.260Z,7.70
2023-03-15T20:12:50.248Z,8.70
2023-03-15T20:15:21.251Z,8.90
2023-03-15T20:17:48.073Z,8.10
2023-03-15T20:20:15.008Z,7.90
2023-03-15T20:22:44.871Z,8.30
2023-03-15T20:25:18.083Z,7.70
2023-03-15T20:27:44.797Z,8.50
2023-03-15T20:30:15.141Z,7.60
2023-03-15T20:32:42.626Z,7.80
2023-03-15T20:35:10.314Z,8.50
2023-03-15T20:37:40.173Z,9.10
2023-03-15T20:40:13.048Z,8.40
2023-03-15T20:42:42.513Z,8.40
2023-03-15T20:45:12.031Z,9.20
2023-03-15T20:47:39.444Z,8.30
2023-03-15T20:50:09.852Z,8.90
2023-03-15T20:52:36.520Z,7.30
2023-03-15T20:55:05.228Z,8.40
2023-03-15T20:57:31.952Z,8.60
2023-03-15T20:59:59.023Z,8.50
2023-03-15T21:02:25.538Z,9.10
2023-03-15T21:04:52.139Z,8.30
2023-03-15T21:07:18.641Z,8.00
2023-03-15T21:09:45.948Z,8.20
2023-03-15T21:12:12.313Z,8.40
2023-03-15T21:14:39.288Z,7.20
2023-03-15T21:17:06.002Z,7.80
2023-03-15T21:19:32.375Z,7.70
2023-03-15T21:22:00.397Z,6.80
2023-03-15T21:24:40.647Z,7.20
2023-03-15T21:27:10.862Z,8.10
2023-03-15T21:29:39.600Z,9.00
2023-03-15T21:32:06.940Z,9.80
2023-03-15T21:34:33.702Z,10.10
2023-03-15T21:37:00.140Z,10.00
2023-03-15T21:39:26.605Z,9.40
2023-03-15T21:41:53.042Z,8.60
2023-03-15T21:44:19.889Z,9.00
2023-03-15T21:46:46.443Z,8.20
2023-03-15T21:49:13.277Z,8.20
2023-03-15T21:51:45.439Z,8.90
2023-03-15T21:54:13.314Z,7.50
2023-03-15T21:56:40.345Z,8.30
2023-03-15T21:59:07.292Z,8.20
2023-03-15T22:01:34.146Z,8.80
2023-03-15T22:04:00.688Z,7.80
2023-03-15T22:06:27.606Z,8.70
2023-03-15T22:08:54.028Z,8.00
2023-03-15T22:11:22.237Z,8.50
2023-03-15T22:13:48.983Z,7.80
2023-03-15T22:16:15.525Z,7.80
2023-03-15T22:18:41.918Z,8.00
2023-03-15T22:21:08.539Z,8.00
2023-03-15T22:23:35.031Z,7.30
2023-03-15T22:26:01.637Z,7.50
2023-03-15T22:28:28.146Z,7.20
2023-03-15T22:30:55.596Z,6.90
2023-03-15T22:33:22.446Z,7.10
2023-03-15T22:35:57.438Z,6.70
2023-03-15T22:38:25.818Z,7.10
2023-03-15T22:41:02.164Z,6.40
2023-03-15T22:43:29.850Z,6.50
2023-03-15T22:45:56.243Z,6.00
2023-03-15T22:48:22.745Z,6.60
2023-03-15T22:51:01.729Z,5.40
2023-03-15T22:53:33.037Z,5.70
2023-03-15T22:56:06.548Z,5.90
2023-03-15T22:58:34.207Z,5.60
2023-03-15T23:01:01.333Z,5.10
2023-03-15T23:03:32.256Z,5.60
2023-03-15T23:06:23.288Z,5.50
2023-03-15T23:08:50.552Z,4.90
2023-03-15T23:11:19.037Z,5.30
2023-03-15T23:13:51.461Z,4.70
2023-03-15T23:16:23.796Z,4.00
2023-03-15T23:18:51.362Z,4.00
2023-03-15T23:21:18.044Z,3.60
2023-03-15T23:23:44.510Z,3.00
2023-03-15T23:26:19.861Z,3.00
2023-03-15T23:28:46.297Z,2.90
2023-03-15T23:31:12.715Z,2.40
2023-03-15T23:33:39.263Z,2.60
2023-03-15T23:36:06.538Z,3.00
2023-03-15T23:38:33.896Z,2.20
2023-03-15T23:41:01.621Z,2.80
2023-03-15T23:43:28.257Z,2.30
2023-03-15T23:46:02.903Z,2.70
2023-03-15T23:48:34.026Z,3.10
2023-03-15T23:51:04.337Z,2.70
2023-03-15T23:53:31.934Z,2.90
2023-03-15T23:55:58.375Z,2.70
2023-03-15T23:58:25.256Z,2.80
